Time;durP1;ratioP1;P1;durP2;ratioP2;P2;SDS_P1;SDS_P2;PMS_P1;PMS_P2;Temp;Humidity;BMP_temperature;BMP_pressure;BME280_temperature;BME280_humidity;BME280_pressure;Samples;Min_cycle;Max_cycle;Signal;HPM_P1;HPM_P2
2023/03/29 00:01:58;;;;;;;10.13;2.03;;;4.50;99.90;;;;;;4994249;28;20242;-85
2023/03/29 00:04:26;;;;;;;4.50;1.67;;;4.50;99.90;;;;;;5012277;28;20183;-86
2023/03/29 00:06:52;;;;;;;7.53;1.63;;;4.50;99.90;;;;;;4995555;28;20191;-86
2023/03/29 00:09:18;;;;;;;4.50;1.60;;;4.50;99.90;;;;;;4994627;28;20725;-85
2023/03/29 00:11:44;;;;;;;6.63;1.77;;;4.50;99.90;;;;;;5008375;28;20275;-85
2023/03/29 00:14:11;;;;;;;5.77;1.80;;;4.40;99.90;;;;;;5012964;28;20262;-85
2023/03/29 00:16:37;;;;;;;4.80;1.60;;;4.40;99.90;;;;;;5011566;28;20278;-84
2023/03/29 00:19:03;;;;;;;3.73;1.70;;;4.40;99.90;;;;;;4995509;28;20665;-85
2023/03/29 00:21:28;;;;;;;3.57;1.40;;;4.40;99.90;;;;;;4994313;28;20199;-84
2023/03/29 00:23:56;;;;;;;4.07;1.50;;;4.50;99.90;;;;;;4996868;28;20186;-83
2023/03/29 00:26:21;;;;;;;3.10;1.20;;;4.40;99.90;;;;;;4999222;28;20269;-84
2023/03/29 00:28:47;;;;;;;7.17;1.50;;;4.50;99.90;;;;;;5016637;28;20183;-84
2023/03/29 00:31:16;;;;;;;5.23;1.57;;;4.50;99.90;;;;;;4998567;28;20453;-85
2023/03/29 00:33:43;;;;;;;4.30;1.47;;;4.50;99.90;;;;;;4999137;28;20180;-85
2023/03/29 00:36:11;;;;;;;4.97;1.50;;;4.50;99.90;;;;;;5016435;28;20175;-85
2023/03/29 00:38:37;;;;;;;4.63;1.40;;;4.50;99.90;;;;;;4998934;28;20521;-84
2023/03/29 00:41:05;;;;;;;7.00;1.70;;;4.50;99.90;;;;;;4998046;28;20306;-86
2023/03/29 00:43:54;;;;;;;5.03;2.00;;;4.50;99.90;;;;;;4998181;28;20187;-84
2023/03/29 00:46:21;;;;;;;8.73;1.70;;;4.50;99.90;;;;;;4996367;28;20211;-84
2023/03/29 00:48:47;;;;;;;4.13;1.50;;;4.50;99.90;;;;;;5016307;28;20202;-84
2023/03/29 00:51:15;;;;;;;10.37;1.57;;;4.50;99.90;;;;;;5015153;28;20191;-85
2023/03/29 00:53:54;;;;;;;4.67;1.57;;;4.50;99.90;;;;;;5015739;28;20185;-85
2023/03/29 00:56:34;;;;;;;4.13;1.83;;;4.50;99.90;;;;;;4998576;28;20591;-84
2023/03/29 00:59:21;;;;;;;3.23;1.73;;;4.50;99.90;;;;;;5016117;28;20213;-84
2023/03/29 01:01:53;;;;;;;4.00;1.67;;;4.50;99.90;;;;;;4998157;28;20641;-85
2023/03/29 01:04:44;;;;;;;4.77;1.70;;;4.40;99.90;;;;;;4997823;28;20187;-84
2023/03/29 01:07:20;;;;;;;6.77;1.50;;;4.50;99.90;;;;;;4998380;28;20693;-84
2023/03/29 01:09:52;;;;;;;7.43;1.90;;;4.40;99.90;;;;;;5015006;28;20190;-84
2023/03/29 01:12:22;;;;;;;5.07;1.80;;;4.40;99.90;;;;;;5015971;28;20172;-85
2023/03/29 01:14:52;;;;;;;3.93;1.30;;;4.50;99.90;;;;;;4997346;28;20644;-84
2023/03/29 01:17:20;;;;;;;7.10;1.70;;;4.50;99.90;;;;;;4995283;28;20215;-85
2023/03/29 01:20:13;;;;;;;2.87;1.40;;;4.50;99.90;;;;;;4997154;28;20195;-84
2023/03/29 01:22:56;;;;;;;7.20;1.70;;;4.50;99.90;;;;;;5013983;28;20241;-83
2023/03/29 01:25:39;;;;;;;8.83;1.70;;;4.50;99.90;;;;;;5015644;28;20202;-84
2023/03/29 01:28:10;;;;;;;3.07;1.50;;;4.50;99.90;;;;;;5015906;28;20499;-85
2023/03/29 01:30:47;;;;;;;4.77;1.53;;;4.50;99.90;;;;;;5014634;28;20265;-85
2023/03/29 01:33:22;;;;;;;4.80;1.50;;;4.50;99.90;;;;;;4998081;28;20194;-84
2023/03/29 01:36:15;;;;;;;5.50;1.70;;;4.50;99.90;;;;;;4997080;28;20167;-85
2023/03/29 01:38:55;;;;;;;6.17;1.70;;;4.50;99.90;;;;;;5015460;28;20539;-84
2023/03/29 01:41:25;;;;;;;6.03;2.13;;;4.50;99.90;;;;;;4997253;28;20193;-84
2023/03/29 01:44:06;;;;;;;5.77;1.67;;;4.50;99.90;;;;;;5015513;28;20182;-85
2023/03/29 01:46:44;;;;;;;8.07;1.80;;;4.50;99.90;;;;;;4997299;28;20560;-86
2023/03/29 01:49:17;;;;;;;3.73;1.67;;;4.50;99.90;;;;;;4997625;28;20187;-86
2023/03/29 01:51:49;;;;;;;5.40;2.00;;;4.40;99.90;;;;;;5013744;28;20187;-84
2023/03/29 01:54:25;;;;;;;5.07;2.03;;;4.50;99.90;;;;;;5014917;28;20175;-86
2023/03/29 01:56:52;;;;;;;3.87;1.73;;;4.40;99.90;;;;;;4995914;28;20260;-84
2023/03/29 01:59:21;;;;;;;4.43;1.70;;;4.40;99.90;;;;;;5014434;28;20182;-85
2023/03/29 02:01:53;;;;;;;6.20;2.10;;;4.40;99.90;;;;;;5014229;28;20276;-84
2023/03/29 02:04:26;;;;;;;8.13;2.30;;;4.40;99.90;;;;;;5014460;28;20548;-84
2023/03/29 02:06:54;;;;;;;4.80;2.07;;;4.30;99.90;;;;;;4997016;28;20196;-84
2023/03/29 02:09:22;;;;;;;3.87;1.90;;;4.30;99.90;;;;;;5000006;28;20223;-84
2023/03/29 02:11:49;;;;;;;5.00;2.00;;;4.30;99.90;;;;;;5013801;28;20673;-85
2023/03/29 02:14:15;;;;;;;5.23;1.93;;;4.30;99.90;;;;;;5014726;28;20176;-84
2023/03/29 02:16:41;;;;;;;3.80;1.70;;;4.20;99.90;;;;;;5014593;28;20179;-84
2023/03/29 02:19:09;;;;;;;5.23;2.00;;;4.20;99.90;;;;;;5013619;28;20175;-84
2023/03/29 02:21:50;;;;;;;4.27;1.80;;;4.10;99.90;;;;;;5009646;28;20634;-84
2023/03/29 02:24:19;;;;;;;5.63;1.90;;;4.10;99.90;;;;;;5000323;28;20270;-85
2023/03/29 02:26:45;;;;;;;5.60;2.10;;;4.00;99.90;;;;;;5014268;28;20187;-84
2023/03/29 02:29:11;;;;;;;2.57;1.90;;;4.00;99.90;;;;;;4996785;28;20278;-84
2023/03/29 02:31:50;;;;;;;3.97;2.00;;;3.90;99.90;;;;;;5012080;28;20198;-84
2023/03/29 02:34:20;;;;;;;4.47;1.90;;;3.90;99.90;;;;;;5012663;28;20186;-84
2023/03/29 02:36:50;;;;;;;3.83;2.00;;;3.90;99.90;;;;;;4996368;28;20180;-84
2023/03/29 02:39:18;;;;;;;4.90;1.77;;;3.80;99.90;;;;;;4996652;28;20163;-84
2023/03/29 02:41:48;;;;;;;4.97;1.90;;;3.80;99.90;;;;;;5013551;28;20194;-84
2023/03/29 02:44:17;;;;;;;5.43;2.07;;;3.80;99.90;;;;;;4996274;28;20211;-84
2023/03/29 02:46:44;;;;;;;5.73;1.80;;;3.80;99.90;;;;;;5467449;22;20244;-84
2023/03/29 02:49:10;;;;;;;6.33;2.17;;;3.80;99.90;;;;;;4994552;28;20180;-84
2023/03/29 02:51:37;;;;;;;4.80;2.03;;;3.70;99.90;;;;;;5008958;28;20559;-83
2023/03/29 02:54:18;;;;;;;5.00;1.70;;;3.70;99.90;;;;;;5013876;28;20184;-84
2023/03/29 02:56:48;;;;;;;5.87;1.97;;;3.70;99.90;;;;;;5013951;28;20214;-84
2023/03/29 02:59:18;;;;;;;2.67;1.60;;;3.70;99.90;;;;;;4996360;28;20178;-84
2023/03/29 03:01:44;;;;;;;6.23;2.00;;;3.70;99.90;;;;;;5012970;28;20187;-84
2023/03/29 03:04:11;;;;;;;3.33;1.80;;;3.70;99.90;;;;;;5012389;28;20191;-85
2023/03/29 03:06:37;;;;;;;3.60;1.70;;;3.70;99.90;;;;;;5002405;28;20207;-84
2023/03/29 03:09:04;;;;;;;3.20;1.87;;;3.70;99.90;;;;;;5013780;28;20550;-84
2023/03/29 03:11:31;;;;;;;4.77;1.67;;;3.70;99.90;;;;;;4985809;28;20191;-84
2023/03/29 03:13:56;;;;;;;4.00;1.77;;;3.70;99.90;;;;;;5012312;28;20530;-84
2023/03/29 03:16:22;;;;;;;5.17;2.00;;;3.60;99.90;;;;;;5013101;28;20183;-84
2023/03/29 03:18:50;;;;;;;4.37;2.00;;;3.60;99.90;;;;;;5013256;28;20217;-84
2023/03/29 03:21:17;;;;;;;3.67;1.70;;;3.60;99.90;;;;;;5010446;28;20664;-84
2023/03/29 03:23:44;;;;;;;2.83;1.67;;;3.70;99.90;;;;;;4995319;28;20342;-84
2023/03/29 03:26:10;;;;;;;4.87;1.70;;;3.70;99.90;;;;;;4995848;28;20210;-84
2023/03/29 03:28:36;;;;;;;4.53;1.77;;;3.80;99.90;;;;;;5013834;28;20175;-84
2023/03/29 03:31:01;;;;;;;6.23;1.83;;;3.80;99.90;;;;;;5012797;28;20186;-84
2023/03/29 03:33:27;;;;;;;8.33;1.97;;;3.80;99.90;;;;;;4995680;28;20568;-85
2023/03/29 03:36:01;;;;;;;3.37;1.70;;;3.80;99.90;;;;;;5003549;28;20207;-83
2023/03/29 03:38:28;;;;;;;3.43;1.80;;;3.90;99.90;;;;;;5009504;28;20729;-85
2023/03/29 03:40:58;;;;;;;3.00;1.67;;;3.90;99.90;;;;;;4994475;28;20198;-84
2023/03/29 03:43:24;;;;;;;4.47;1.80;;;3.90;99.90;;;;;;4994763;28;20241;-86
2023/03/29 03:45:50;;;;;;;5.47;1.90;;;3.80;99.90;;;;;;5011860;28;20318;-84
2023/03/29 03:48:17;;;;;;;5.53;1.90;;;3.90;99.90;;;;;;5012963;28;20634;-84
2023/03/29 03:50:51;;;;;;;4.00;1.80;;;3.90;99.90;;;;;;5011360;28;20286;-84
2023/03/29 03:53:17;;;;;;;4.83;1.73;;;3.90;99.90;;;;;;5006684;28;20187;-85
2023/03/29 03:55:50;;;;;;;4.40;1.87;;;3.90;99.90;;;;;;4976576;28;20700;-85
2023/03/29 03:58:17;;;;;;;5.10;1.80;;;4.00;99.90;;;;;;4993223;28;20230;-83
2023/03/29 04:00:44;;;;;;;3.57;1.80;;;3.90;99.90;;;;;;4980066;28;20172;-86
2023/03/29 04:03:10;;;;;;;5.13;1.80;;;4.00;99.90;;;;;;4995943;28;20195;-85
2023/03/29 04:05:43;;;;;;;8.73;2.23;;;4.00;99.90;;;;;;4999070;28;20222;-84
2023/03/29 04:08:11;;;;;;;3.30;2.20;;;4.00;99.90;;;;;;5017101;28;20675;-83
2023/03/29 04:10:38;;;;;;;4.37;2.07;;;4.00;99.90;;;;;;4999233;28;20648;-85
2023/03/29 04:13:04;;;;;;;4.73;2.00;;;4.00;99.90;;;;;;4999006;28;20245;-84
2023/03/29 04:15:31;;;;;;;6.47;2.47;;;3.90;99.90;;;;;;5017046;28;20434;-85
2023/03/29 04:17:58;;;;;;;3.60;2.10;;;3.90;99.90;;;;;;5016364;28;20248;-84
2023/03/29 04:20:25;;;;;;;10.33;2.50;;;4.00;99.90;;;;;;4998719;28;20664;-84
2023/03/29 04:22:52;;;;;;;4.77;2.60;;;4.00;99.90;;;;;;5016209;28;20195;-85
2023/03/29 04:25:18;;;;;;;3.67;2.33;;;4.00;99.90;;;;;;4998854;28;20661;-83
2023/03/29 04:27:45;;;;;;;3.70;2.30;;;4.00;99.90;;;;;;4999034;28;20280;-83
2023/03/29 04:30:11;;;;;;;3.87;2.30;;;4.00;99.90;;;;;;4998772;28;20290;-84
2023/03/29 04:32:37;;;;;;;8.13;3.27;;;4.00;99.90;;;;;;5008161;28;20269;-84
2023/03/29 04:35:04;;;;;;;7.17;2.43;;;4.00;99.90;;;;;;5014628;28;20258;-84
2023/03/29 04:37:30;;;;;;;5.87;2.57;;;4.10;99.90;;;;;;5015199;28;20179;-85
2023/03/29 04:39:59;;;;;;;5.53;3.10;;;4.10;99.90;;;;;;5006285;28;20180;-86
2023/03/29 04:42:28;;;;;;;3.80;2.57;;;4.00;99.90;;;;;;4993212;28;20183;-83
2023/03/29 04:44:53;;;;;;;6.33;2.83;;;4.00;99.90;;;;;;5014924;28;20223;-84
2023/03/29 04:47:22;;;;;;;6.50;2.70;;;4.00;99.90;;;;;;5024856;28;20277;-84
2023/03/29 04:49:48;;;;;;;5.07;3.10;;;3.90;99.90;;;;;;5015579;28;20241;-84
2023/03/29 04:52:14;;;;;;;4.90;2.67;;;3.90;99.90;;;;;;5015113;28;20183;-83
2023/03/29 04:54:39;;;;;;;6.63;2.90;;;3.80;99.90;;;;;;5012629;28;20183;-84
2023/03/29 04:57:06;;;;;;;5.70;3.07;;;3.80;99.90;;;;;;5013897;28;20187;-84
2023/03/29 04:59:33;;;;;;;7.10;3.03;;;3.80;99.90;;;;;;5010470;28;20183;-83
2023/03/29 05:02:01;;;;;;;4.37;3.07;;;3.80;99.90;;;;;;5013360;28;20183;-82
2023/03/29 05:04:27;;;;;;;6.50;3.20;;;3.80;99.90;;;;;;5008882;28;20639;-83
2023/03/29 05:06:54;;;;;;;4.97;2.93;;;3.80;99.90;;;;;;5014906;28;20197;-83
2023/03/29 05:09:21;;;;;;;6.50;3.57;;;3.70;99.90;;;;;;5014553;28;20179;-84
2023/03/29 05:11:47;;;;;;;6.40;3.47;;;3.70;99.90;;;;;;5014688;28;20295;-83
2023/03/29 05:14:13;;;;;;;6.30;3.53;;;3.80;99.90;;;;;;5013606;28;20202;-83
2023/03/29 05:16:39;;;;;;;4.70;3.20;;;3.80;99.90;;;;;;5011303;28;20195;-84
2023/03/29 05:19:05;;;;;;;5.93;3.67;;;3.80;99.90;;;;;;5013008;28;20207;-83
2023/03/29 05:21:32;;;;;;;8.37;3.90;;;3.80;99.90;;;;;;5013383;28;20206;-84
2023/03/29 05:23:57;;;;;;;9.17;3.70;;;3.80;99.90;;;;;;5013371;28;20191;-83
2023/03/29 05:26:24;;;;;;;6.40;3.40;;;3.90;99.90;;;;;;5014770;28;20234;-83
2023/03/29 05:28:50;;;;;;;6.33;3.47;;;3.90;99.90;;;;;;5014378;28;20265;-83
2023/03/29 05:31:16;;;;;;;8.33;3.23;;;3.90;99.90;;;;;;5012225;28;20195;-84
2023/03/29 05:33:42;;;;;;;7.50;3.30;;;3.90;99.90;;;;;;5013272;28;20191;-82
2023/03/29 05:36:13;;;;;;;5.47;3.57;;;3.90;99.90;;;;;;5013861;28;20562;-85
2023/03/29 05:38:45;;;;;;;6.73;3.77;;;4.00;99.90;;;;;;5014367;28;20202;-84
2023/03/29 05:41:12;;;;;;;7.90;3.53;;;4.00;99.90;;;;;;5014785;28;20552;-84
2023/03/29 05:43:37;;;;;;;7.60;3.77;;;4.00;99.90;;;;;;5014436;28;20241;-85
2023/03/29 05:46:04;;;;;;;8.07;3.60;;;4.00;99.90;;;;;;5009379;28;20244;-82
2023/03/29 05:48:31;;;;;;;4.90;3.63;;;4.10;99.90;;;;;;5014049;28;20278;-85
2023/03/29 05:50:57;;;;;;;6.93;3.50;;;4.20;99.90;;;;;;5013738;28;20202;-84
2023/03/29 05:53:26;;;;;;;9.33;3.73;;;4.20;99.90;;;;;;5014359;28;20245;-85
2023/03/29 05:55:51;;;;;;;5.73;3.67;;;4.20;99.90;;;;;;5013546;28;20649;-83
2023/03/29 05:58:19;;;;;;;7.30;4.40;;;4.20;99.90;;;;;;5014126;28;20180;-85
2023/03/29 06:00:45;;;;;;;9.03;4.00;;;4.30;99.90;;;;;;5014188;28;20509;-84
2023/03/29 06:03:26;;;;;;;4.93;3.77;;;4.30;99.90;;;;;;4997064;28;20191;-85
2023/03/29 06:06:01;;;;;;;8.87;4.40;;;4.40;99.90;;;;;;4996364;28;20309;-83
2023/03/29 06:08:27;;;;;;;9.80;4.67;;;4.40;99.90;;;;;;5014275;28;20190;-85
2023/03/29 06:11:02;;;;;;;5.70;4.13;;;4.40;99.90;;;;;;4995993;28;20187;-85
2023/03/29 06:13:28;;;;;;;7.60;4.63;;;4.50;99.90;;;;;;5015082;28;20182;-85
2023/03/29 06:15:54;;;;;;;10.90;5.10;;;4.50;99.90;;;;;;4996852;28;20249;-84
2023/03/29 06:18:20;;;;;;;8.43;5.03;;;4.50;99.90;;;;;;4996628;28;20198;-83
2023/03/29 06:20:50;;;;;;;6.53;4.80;;;4.60;99.90;;;;;;4994668;28;20528;-84
2023/03/29 06:23:18;;;;;;;8.13;5.10;;;4.60;99.90;;;;;;4997057;28;20193;-83
2023/03/29 06:25:45;;;;;;;9.47;5.30;;;4.70;99.90;;;;;;5013539;28;20210;-83
2023/03/29 06:28:14;;;;;;;8.27;4.47;;;4.80;99.90;;;;;;5010961;28;20186;-82
2023/03/29 06:30:40;;;;;;;6.97;5.27;;;4.90;99.90;;;;;;5008950;28;20183;-84
2023/03/29 06:33:07;;;;;;;15.60;5.80;;;4.90;99.90;;;;;;4993855;28;20278;-83
2023/03/29 06:35:34;;;;;;;7.70;5.40;;;5.00;99.90;;;;;;4994531;28;20180;-83
2023/03/29 06:38:02;;;;;;;9.53;4.80;;;5.10;99.90;;;;;;4992006;28;20622;-84
2023/03/29 06:40:28;;;;;;;8.13;4.93;;;5.10;99.90;;;;;;4996789;28;20221;-84
2023/03/29 06:42:56;;;;;;;8.90;5.30;;;5.10;99.90;;;;;;5012333;28;20616;-84
2023/03/29 06:45:32;;;;;;;7.57;5.20;;;5.20;99.90;;;;;;5014215;28;20207;-84
2023/03/29 06:47:58;;;;;;;7.53;5.40;;;5.30;99.90;;;;;;5010886;28;20219;-84
2023/03/29 06:50:24;;;;;;;10.13;5.27;;;5.30;99.90;;;;;;4996621;28;20532;-85
2023/03/29 06:52:51;;;;;;;6.30;5.03;;;5.40;99.90;;;;;;5013622;28;20175;-84
2023/03/29 06:55:17;;;;;;;5.90;4.63;;;5.40;99.90;;;;;;5014585;28;20171;-83
2023/03/29 06:57:43;;;;;;;10.70;5.07;;;5.50;99.90;;;;;;5011317;28;20194;-84
2023/03/29 07:00:18;;;;;;;6.13;4.53;;;5.50;99.90;;;;;;4994796;28;20176;-85
2023/03/29 07:02:48;;;;;;;8.20;5.07;;;5.50;99.90;;;;;;5012617;28;20629;-84
2023/03/29 07:05:14;;;;;;;7.80;5.00;;;5.60;99.90;;;;;;5006009;28;20222;-83
2023/03/29 07:08:30;;;;;;;8.53;4.90;;;5.60;99.90;;;;;;4994705;28;20183;-84
2023/03/29 07:10:36;;;;;;;7.77;5.63;;;5.60;99.90;;;;;;4993759;28;20194;-85
2023/03/29 07:13:08;;;;;;;8.13;5.03;;;5.70;99.90;;;;;;5009725;28;20641;-85
2023/03/29 07:15:34;;;;;;;9.30;5.43;;;5.70;99.90;;;;;;5010964;28;20175;-85
2023/03/29 07:18:02;;;;;;;7.63;5.23;;;5.70;99.90;;;;;;5000164;28;20191;-86
2023/03/29 07:20:29;;;;;;;10.27;5.37;;;5.70;99.90;;;;;;4996601;28;20187;-86
2023/03/29 07:22:56;;;;;;;8.70;5.40;;;5.80;99.90;;;;;;4993020;28;20234;-84
2023/03/29 07:25:23;;;;;;;9.67;5.10;;;5.80;99.90;;;;;;4985871;28;20596;-84
2023/03/29 07:27:50;;;;;;;10.70;5.57;;;5.90;99.90;;;;;;5013113;28;20175;-85
2023/03/29 07:30:26;;;;;;;11.20;5.67;;;5.90;99.90;;;;;;4996046;28;20585;-83
2023/03/29 07:32:52;;;;;;;9.43;5.13;;;6.00;99.90;;;;;;5013915;28;20939;-85
2023/03/29 07:35:18;;;;;;;12.20;5.13;;;6.10;99.90;;;;;;5018407;28;20207;-85
2023/03/29 07:37:45;;;;;;;10.90;5.50;;;6.20;99.90;;;;;;5015586;28;20207;-84
2023/03/29 07:40:22;;;;;;;9.30;5.50;;;6.30;99.90;;;;;;5002577;28;20187;-87
2023/03/29 07:42:51;;;;;;;7.90;5.20;;;6.40;99.90;;;;;;4999991;28;20186;-85
2023/03/29 07:45:19;;;;;;;10.47;5.17;;;6.50;99.90;;;;;;5011392;28;20246;-85
2023/03/29 07:47:46;;;;;;;12.17;5.43;;;6.50;99.90;;;;;;5015964;28;20219;-84
2023/03/29 07:50:13;;;;;;;9.37;5.40;;;6.60;99.90;;;;;;5031955;28;20192;-84
2023/03/29 07:52:39;;;;;;;8.33;4.50;;;6.70;99.90;;;;;;5018065;28;20190;-86
2023/03/29 07:55:06;;;;;;;10.30;5.37;;;6.80;99.90;;;;;;5020091;28;20175;-84
2023/03/29 07:57:32;;;;;;;10.07;5.40;;;6.90;99.90;;;;;;5017966;28;20195;-86
2023/03/29 07:59:58;;;;;;;11.63;5.40;;;7.00;99.90;;;;;;5018644;28;20185;-85
2023/03/29 08:02:26;;;;;;;10.03;4.80;;;7.10;99.90;;;;;;5018848;28;20252;-86
2023/03/29 08:04:55;;;;;;;10.33;4.90;;;7.10;99.90;;;;;;5010956;28;20175;-86
2023/03/29 08:07:22;;;;;;;9.00;4.20;;;7.20;99.90;;;;;;5016837;28;20629;-88
2023/03/29 08:09:48;;;;;;;8.50;4.93;;;7.20;99.90;;;;;;5017696;28;20182;-86
2023/03/29 08:12:14;;;;;;;9.57;4.40;;;7.30;99.90;;;;;;5018397;28;20183;-86
2023/03/29 08:14:40;;;;;;;9.50;4.40;;;7.30;99.90;;;;;;5019307;28;20176;-94
2023/03/29 08:17:05;;;;;;;6.57;4.27;;;7.30;99.90;;;;;;5019235;28;20175;-86
2023/03/29 08:19:31;;;;;;;6.77;4.20;;;7.30;99.90;;;;;;5018567;28;20179;-86
2023/03/29 08:21:59;;;;;;;6.10;4.40;;;7.30;99.90;;;;;;5016399;28;20181;-88
2023/03/29 08:24:25;;;;;;;11.17;4.23;;;7.50;99.90;;;;;;5017171;28;20529;-87
2023/03/29 08:26:51;;;;;;;6.93;3.80;;;7.50;99.90;;;;;;5019104;28;20207;-86
2023/03/29 08:29:16;;;;;;;5.77;3.80;;;7.60;99.90;;;;;;5019111;28;20182;-91
2023/03/29 08:31:42;;;;;;;4.93;3.60;;;7.70;99.90;;;;;;5017511;28;20216;-83
2023/03/29 08:34:08;;;;;;;7.07;4.10;;;7.70;99.90;;;;;;5013774;28;20175;-92
2023/03/29 08:36:33;;;;;;;4.50;3.60;;;7.80;99.90;;;;;;5019197;28;20513;-86
2023/03/29 08:39:01;;;;;;;9.57;4.00;;;7.80;99.90;;;;;;5019972;28;20229;-84
2023/03/29 08:41:33;;;;;;;5.97;3.90;;;7.80;99.90;;;;;;5013369;28;20187;-83
2023/03/29 08:44:15;;;;;;;10.60;4.60;;;7.80;99.90;;;;;;5018057;28;20284;-88
2023/03/29 08:46:44;;;;;;;6.43;3.97;;;7.80;99.90;;;;;;5029387;28;20297;-92
2023/03/29 08:49:11;;;;;;;5.70;3.67;;;7.80;99.90;;;;;;5030563;28;20190;-85
2023/03/29 08:51:46;;;;;;;6.20;3.40;;;7.80;99.90;;;;;;5013584;28;20183;-85
2023/03/29 08:54:41;;;;;;;4.30;3.03;;;7.80;99.90;;;;;;5015882;28;20181;-85
2023/03/29 08:57:17;;;;;;;6.77;3.87;;;7.90;99.90;;;;;;5012706;28;20198;-82
2023/03/29 08:59:44;;;;;;;7.10;3.80;;;8.00;99.90;;;;;;5015403;28;20175;-87
2023/03/29 09:02:26;;;;;;;5.80;4.10;;;7.90;99.90;;;;;;5014093;28;20183;-89
2023/03/29 09:04:56;;;;;;;6.17;3.47;;;8.00;99.90;;;;;;5016524;28;20167;-82
2023/03/29 09:07:22;;;;;;;4.77;3.63;;;8.00;99.90;;;;;;5014893;28;20182;-85
2023/03/29 09:09:47;;;;;;;6.27;4.00;;;8.00;99.90;;;;;;5013036;28;20175;-85
2023/03/29 09:12:33;;;;;;;12.07;3.83;;;8.00;99.90;;;;;;5011255;28;20183;-86
2023/03/29 09:15:10;;;;;;;10.97;3.97;;;8.00;99.90;;;;;;5012990;28;20190;-85
2023/03/29 09:17:56;;;;;;;6.83;3.90;;;8.00;99.90;;;;;;5010455;28;20175;-90
2023/03/29 09:20:37;;;;;;;5.00;3.43;;;8.00;99.90;;;;;;5015133;28;20263;-84
2023/03/29 09:23:32;;;;;;;7.23;3.73;;;8.00;99.90;;;;;;5027769;28;20179;-85
2023/03/29 09:26:08;;;;;;;7.50;4.03;;;8.00;99.90;;;;;;5014614;28;20199;-86
2023/03/29 09:28:49;;;;;;;5.40;3.77;;;8.10;99.90;;;;;;5014161;28;20195;-86
2023/03/29 09:31:27;;;;;;;5.37;3.47;;;8.20;99.90;;;;;;5012297;28;20293;-86
2023/03/29 09:34:09;;;;;;;9.03;3.93;;;8.20;99.90;;;;;;5011838;28;20517;-84
2023/03/29 09:36:51;;;;;;;7.30;3.60;;;8.30;99.90;;;;;;5013161;28;20183;-84
2023/03/29 09:39:19;;;;;;;7.07;4.40;;;8.40;99.90;;;;;;5014658;28;20183;-84
2023/03/29 09:41:50;;;;;;;4.57;3.00;;;8.50;99.90;;;;;;5014851;28;20180;-89
2023/03/29 09:44:21;;;;;;;7.23;3.57;;;8.60;99.90;;;;;;5013818;28;20175;-87
2023/03/29 09:46:54;;;;;;;6.10;3.80;;;8.60;99.90;;;;;;5015312;28;20234;-84
2023/03/29 09:49:25;;;;;;;6.37;3.80;;;8.60;99.90;;;;;;5014304;28;20179;-87
2023/03/29 09:51:56;;;;;;;7.37;3.70;;;8.70;99.90;;;;;;4998225;28;20272;-84
2023/03/29 09:54:22;;;;;;;7.77;3.87;;;8.70;99.90;;;;;;5014921;28;20191;-86
2023/03/29 09:56:48;;;;;;;5.80;4.10;;;8.90;99.90;;;;;;4996928;28;20187;-87
2023/03/29 09:59:13;;;;;;;5.97;4.17;;;9.00;99.90;;;;;;5010283;28;20196;-83
2023/03/29 10:01:45;;;;;;;6.60;3.90;;;9.10;99.90;;;;;;4996439;28;20532;-89
2023/03/29 10:04:12;;;;;;;6.17;3.60;;;9.20;99.90;;;;;;5016288;28;20199;-87
2023/03/29 10:06:48;;;;;;;5.07;3.83;;;9.20;99.90;;;;;;5014567;28;20218;-85
2023/03/29 10:09:20;;;;;;;6.83;3.83;;;9.20;99.90;;;;;;4995401;28;20183;-86
2023/03/29 10:11:51;;;;;;;6.20;3.67;;;9.30;99.90;;;;;;4998557;28;20266;-84
2023/03/29 10:14:34;;;;;;;7.30;4.10;;;9.20;99.90;;;;;;5003776;28;20241;-87
2023/03/29 10:17:03;;;;;;;4.47;3.60;;;9.10;99.90;;;;;;5011858;28;20171;-90
2023/03/29 10:19:33;;;;;;;6.63;4.00;;;9.10;99.90;;;;;;5012433;28;20175;-91
2023/03/29 10:22:21;;;;;;;4.87;3.53;;;9.10;99.90;;;;;;5010955;28;20184;-85
2023/03/29 10:24:50;;;;;;;6.03;3.97;;;9.20;99.90;;;;;;5009119;28;20198;-85
2023/03/29 10:27:22;;;;;;;4.63;3.50;;;9.30;99.90;;;;;;5012795;28;20202;-86
2023/03/29 10:29:48;;;;;;;5.55;3.78;;;9.30;99.90;;;;;;4995340;28;20214;-90
2023/03/29 10:32:33;;;;;;;6.50;3.55;;;9.30;99.90;;;;;;5014323;28;20183;-85
2023/03/29 10:35:17;;;;;;;7.03;3.50;;;9.40;99.90;;;;;;4979132;28;20618;-86
2023/03/29 10:37:47;;;;;;;7.37;4.17;;;9.40;99.90;;;;;;4978095;28;20626;-85
2023/03/29 10:40:34;;;;;;;6.27;4.00;;;9.50;99.90;;;;;;4979228;28;20286;-86
2023/03/29 10:43:18;;;;;;;6.43;3.83;;;9.40;99.90;;;;;;5014765;28;20182;-85
2023/03/29 10:45:47;;;;;;;11.50;4.40;;;9.40;99.90;;;;;;4998008;28;20304;-90
2023/03/29 10:48:15;;;;;;;4.93;3.77;;;9.30;99.90;;;;;;5015843;28;20209;-85
2023/03/29 10:50:41;;;;;;;7.90;3.83;;;9.20;99.90;;;;;;4997001;28;20660;-86
2023/03/29 10:53:27;;;;;;;8.20;3.90;;;9.20;99.90;;;;;;5013668;28;20206;-84
2023/03/29 10:56:07;;;;;;;7.13;3.45;;;9.30;99.90;;;;;;5015370;28;20179;-89
2023/03/29 10:59:08;;;;;;;8.50;3.93;;;9.30;99.90;;;;;;4997843;28;20190;-85
2023/03/29 11:02:01;;;;;;;7.85;3.85;;;9.40;99.90;;;;;;4997541;28;20201;-84
2023/03/29 11:04:58;;;;;;;6.80;4.00;;;9.50;99.90;;;;;;5001719;28;20187;-84
2023/03/29 11:07:52;;;;;;;6.97;3.90;;;9.50;99.90;;;;;;5008348;28;20191;-86
2023/03/29 11:10:52;;;;;;;6.40;4.10;;;9.50;99.90;;;;;;4998582;28;20222;-85
2023/03/29 11:13:37;;;;;;;7.93;4.17;;;9.50;99.90;;;;;;5012810;28;20179;-92
2023/03/29 11:16:25;;;;;;;7.60;3.83;;;9.50;99.90;;;;;;5004381;28;20183;-88
2023/03/29 11:19:12;;;;;;;6.80;4.35;;;9.60;99.90;;;;;;5013766;28;20283;-89
2023/03/29 11:22:01;;;;;;;5.97;3.90;;;9.70;99.90;;;;;;5014282;28;20225;-94
2023/03/29 11:24:56;;;;;;;7.25;3.88;;;9.60;99.90;;;;;;5003556;28;20262;-93
2023/03/29 11:27:34;;;;;;;4.82;3.55;;;9.60;99.90;;;;;;5012645;28;20191;-85
2023/03/29 11:30:16;;;;;;;5.35;4.28;;;9.70;99.90;;;;;;4995957;28;20175;-89
2023/03/29 11:33:07;;;;;;;4.85;3.80;;;9.90;99.90;;;;;;5013249;28;20179;-85
2023/03/29 11:35:59;;;;;;;5.05;3.72;;;10.20;99.90;;;;;;5014628;28;20573;-85
2023/03/29 11:38:38;;;;;;;6.32;3.65;;;10.40;99.90;;;;;;5015099;28;20254;-90
2023/03/29 11:41:07;;;;;;;5.82;4.28;;;10.50;99.90;;;;;;4998017;28;20218;-89
2023/03/29 11:43:58;;;;;;;6.88;3.60;;;10.40;99.90;;;;;;4997169;28;20233;-87
2023/03/29 11:46:23;;;;;;;4.97;3.78;;;10.40;99.90;;;;;;5006553;28;20266;-85
2023/03/29 11:49:05;;;;;;;6.60;4.45;;;10.50;99.90;;;;;;5012444;28;20229;-89
2023/03/29 11:51:36;;;;;;;7.00;3.70;;;10.80;99.90;;;;;;5016046;28;20274;-91
2023/03/29 11:54:05;;;;;;;6.63;3.70;;;10.80;99.90;;;;;;5011635;28;20171;-88
2023/03/29 11:56:48;;;;;;;6.68;3.70;;;10.80;99.90;;;;;;5013516;28;20190;-87
2023/03/29 11:59:22;;;;;;;6.18;3.40;;;11.10;99.90;;;;;;5010394;28;20183;-88
2023/03/29 12:02:07;;;;;;;5.05;3.60;;;11.30;99.90;;;;;;5012310;28;20167;-91
2023/03/29 12:04:43;;;;;;;5.68;3.40;;;11.20;99.90;;;;;;5014310;28;20561;-87
2023/03/29 12:07:28;;;;;;;6.70;4.00;;;11.00;99.90;;;;;;5012314;28;20182;-90
2023/03/29 12:10:41;;;;;;;4.93;3.45;;;10.90;99.90;;;;;;5011053;28;20183;-87
2023/03/29 12:13:27;;;;;;;7.03;3.65;;;10.70;99.90;;;;;;4934922;29;20280;-85
2023/03/29 12:16:13;;;;;;;4.63;3.50;;;10.60;99.90;;;;;;5009735;28;20175;-87
2023/03/29 12:18:48;;;;;;;5.00;2.90;;;10.70;99.90;;;;;;5013280;28;20183;-87
2023/03/29 12:21:19;;;;;;;5.90;3.50;;;10.80;99.90;;;;;;5014628;28;21176;-85
2023/03/29 12:23:47;;;;;;;6.45;2.95;;;10.90;99.90;;;;;;5016061;28;20179;-87
2023/03/29 12:26:15;;;;;;;4.22;2.83;;;10.90;99.90;;;;;;5016512;28;20238;-87
2023/03/29 12:29:04;;;;;;;5.15;3.03;;;10.90;99.90;;;;;;5016483;28;20182;-86
2023/03/29 12:31:51;;;;;;;5.05;3.00;;;10.90;99.90;;;;;;5011371;28;20185;-88
2023/03/29 12:34:57;;;;;;;4.90;3.15;;;10.90;99.90;;;;;;5017222;28;20175;-88
2023/03/29 12:37:45;;;;;;;4.93;2.95;;;10.90;99.90;;;;;;5007772;28;20183;-87
2023/03/29 12:40:17;;;;;;;4.53;3.08;;;10.80;99.90;;;;;;5015006;28;20175;-85
2023/03/29 12:43:07;;;;;;;6.05;3.50;;;10.80;99.90;;;;;;5017258;28;20191;-89
2023/03/29 12:45:40;;;;;;;4.30;3.25;;;10.70;99.90;;;;;;5014416;28;20207;-87
2023/03/29 12:48:12;;;;;;;5.00;3.17;;;10.70;99.90;;;;;;5016051;28;20603;-86
2023/03/29 12:51:07;;;;;;;6.82;3.40;;;10.70;99.90;;;;;;5016692;28;20175;-87
2023/03/29 12:53:51;;;;;;;6.40;3.50;;;10.90;99.90;;;;;;5011612;28;20282;-88
2023/03/29 12:56:20;;;;;;;5.80;3.20;;;10.90;99.90;;;;;;5015456;28;20190;-86
2023/03/29 12:59:05;;;;;;;5.35;2.92;;;11.00;99.90;;;;;;5017187;28;20167;-86
2023/03/29 13:01:35;;;;;;;6.70;3.03;;;11.10;99.90;;;;;;5012483;28;20650;-86
2023/03/29 13:04:19;;;;;;;4.72;3.20;;;11.10;99.90;;;;;;5000170;28;20962;-87
2023/03/29 13:06:47;;;;;;;3.60;2.92;;;11.10;99.90;;;;;;5011650;28;20226;-87
2023/03/29 13:09:22;;;;;;;3.25;2.90;;;11.10;99.90;;;;;;5016375;28;20191;-87
2023/03/29 13:12:03;;;;;;;3.33;2.70;;;11.20;99.90;;;;;;5016872;28;20178;-95
2023/03/29 13:14:33;;;;;;;5.63;3.20;;;11.30;99.90;;;;;;5016237;28;20187;-86
2023/03/29 13:17:34;;;;;;;4.60;3.88;;;11.50;99.90;;;;;;5015839;28;20175;-89
2023/03/29 13:20:08;;;;;;;7.35;4.32;;;11.50;99.90;;;;;;4969161;28;20194;-86
2023/03/29 13:22:43;;;;;;;6.18;3.85;;;11.70;99.90;;;;;;5026033;28;20180;-87